sensor_id;sensor_type;location;lat;lon;timestamp;temperature;humidity
32694;DHT22;19084;44.716;10.218;2022-12-18T00:01:39;6.70;99.90
32694;DHT22;19084;44.716;10.218;2022-12-18T00:04:15;6.60;99.90
32694;DHT22;19084;44.716;10.218;2022-12-18T00:06:49;6.70;99.90
32694;DHT22;19084;44.716;10.218;2022-12-18T00:09:22;6.70;99.90
32694;DHT22;19084;44.716;10.218;2022-12-18T00:11:56;6.70;99.90
32694;DHT22;19084;44.716;10.218;2022-12-18T00:14:28;6.70;99.90
32694;DHT22;19084;44.716;10.218;2022-12-18T00:17:01;6.70;99.90
32694;DHT22;19084;44.716;10.218;2022-12-18T00:19:33;6.70;99.90
32694;DHT22;19084;44.716;10.218;2022-12-18T00:22:06;6.60;99.90
32694;DHT22;19084;44.716;10.218;2022-12-18T00:24:38;6.60;99.90
32694;DHT22;19084;44.716;10.218;2022-12-18T00:27:11;6.60;99.90
32694;DHT22;19084;44.716;10.218;2022-12-18T00:29:43;6.70;99.90
32694;DHT22;19084;44.716;10.218;2022-12-18T00:32:16;6.60;99.90
32694;DHT22;19084;44.716;10.218;2022-12-18T00:34:48;6.60;99.90
32694;DHT22;19084;44.716;10.218;2022-12-18T00:37:21;6.60;99.90
32694;DHT22;19084;44.716;10.218;2022-12-18T00:39:55;6.60;99.90
32694;DHT22;19084;44.716;10.218;2022-12-18T00:42:28;6.60;99.90
32694;DHT22;19084;44.716;10.218;2022-12-18T00:45:16;6.60;99.90
32694;DHT22;19084;44.716;10.218;2022-12-18T00:47:51;6.60;99.90
32694;DHT22;19084;44.716;10.218;2022-12-18T00:50:24;6.60;99.90
32694;DHT22;19084;44.716;10.218;2022-12-18T00:52:57;6.60;99.90
32694;DHT22;19084;44.716;10.218;2022-12-18T00:55:30;6.60;99.90
32694;DHT22;19084;44.716;10.218;2022-12-18T00:58:03;6.60;99.90
32694;DHT22;19084;44.716;10.218;2022-12-18T01:00:35;6.60;99.90
32694;DHT22;19084;44.716;10.218;2022-12-18T01:03:09;6.60;99.90
32694;DHT22;19084;44.716;10.218;2022-12-18T01:05:43;6.60;99.90
32694;DHT22;19084;44.716;10.218;2022-12-18T01:08:16;6.60;99.90
32694;DHT22;19084;44.716;10.218;2022-12-18T01:10:49;6.60;99.90
32694;DHT22;19084;44.716;10.218;2022-12-18T01:13:21;6.60;99.90
32694;DHT22;19084;44.716;10.218;2022-12-18T01:15:54;6.70;99.90
32694;DHT22;19084;44.716;10.218;2022-12-18T01:18:27;6.60;99.90
32694;DHT22;19084;44.716;10.218;2022-12-18T01:21:06;6.60;99.90
32694;DHT22;19084;44.716;10.218;2022-12-18T01:23:41;6.60;99.90
32694;DHT22;19084;44.716;10.218;2022-12-18T01:26:16;6.60;99.90
32694;DHT22;19084;44.716;10.218;2022-12-18T01:28:49;6.60;99.90
32694;DHT22;19084;44.716;10.218;2022-12-18T01:33:54;6.60;99.90
32694;DHT22;19084;44.716;10.218;2022-12-18T01:36:28;6.50;99.90
32694;DHT22;19084;44.716;10.218;2022-12-18T01:39:03;6.60;99.90
32694;DHT22;19084;44.716;10.218;2022-12-18T01:41:36;6.60;99.90
32694;DHT22;19084;44.716;10.218;2022-12-18T01:47:20;6.60;99.90
32694;DHT22;19084;44.716;10.218;2022-12-18T01:49:53;6.60;99.90
32694;DHT22;19084;44.716;10.218;2022-12-18T01:52:28;6.60;99.90
32694;DHT22;19084;44.716;10.218;2022-12-18T01:55:03;6.60;99.90
32694;DHT22;19084;44.716;10.218;2022-12-18T01:57:37;6.60;99.90
32694;DHT22;19084;44.716;10.218;2022-12-18T02:00:13;6.50;99.90
32694;DHT22;19084;44.716;10.218;2022-12-18T02:02:47;6.50;99.90
32694;DHT22;19084;44.716;10.218;2022-12-18T02:08:11;6.40;99.90
32694;DHT22;19084;44.716;10.218;2022-12-18T02:10:48;6.40;99.90
32694;DHT22;19084;44.716;10.218;2022-12-18T02:16:21;6.40;99.90
32694;DHT22;19084;44.716;10.218;2022-12-18T02:18:57;6.30;99.90
32694;DHT22;19084;44.716;10.218;2022-12-18T02:24:29;6.40;99.90
32694;DHT22;19084;44.716;10.218;2022-12-18T02:27:05;6.30;99.90
32694;DHT22;19084;44.716;10.218;2022-12-18T02:29:44;6.30;99.90
32694;DHT22;19084;44.716;10.218;2022-12-18T02:32:18;6.30;99.90
32694;DHT22;19084;44.716;10.218;2022-12-18T02:34:52;6.40;99.90
32694;DHT22;19084;44.716;10.218;2022-12-18T02:37:28;6.40;99.90
32694;DHT22;19084;44.716;10.218;2022-12-18T02:40:05;6.30;99.90
32694;DHT22;19084;44.716;10.218;2022-12-18T02:42:40;6.40;99.90
32694;DHT22;19084;44.716;10.218;2022-12-18T02:45:15;6.30;99.90
32694;DHT22;19084;44.716;10.218;2022-12-18T02:47:48;6.30;99.90
32694;DHT22;19084;44.716;10.218;2022-12-18T02:50:26;6.20;99.90
32694;DHT22;19084;44.716;10.218;2022-12-18T02:53:13;6.20;99.90
32694;DHT22;19084;44.716;10.218;2022-12-18T02:55:59;6.20;99.90
32694;DHT22;19084;44.716;10.218;2022-12-18T03:01:18;6.20;99.90
32694;DHT22;19084;44.716;10.218;2022-12-18T03:04:04;6.20;99.90
32694;DHT22;19084;44.716;10.218;2022-12-18T03:06:41;6.20;99.90
32694;DHT22;19084;44.716;10.218;2022-12-18T03:12:10;6.20;99.90
32694;DHT22;19084;44.716;10.218;2022-12-18T03:17:36;6.10;99.90
32694;DHT22;19084;44.716;10.218;2022-12-18T03:20:14;6.00;99.90
32694;DHT22;19084;44.716;10.218;2022-12-18T03:22:49;6.00;99.90
32694;DHT22;19084;44.716;10.218;2022-12-18T03:25:24;5.90;99.90
32694;DHT22;19084;44.716;10.218;2022-12-18T03:27:59;5.90;99.90
32694;DHT22;19084;44.716;10.218;2022-12-18T03:30:33;5.90;99.90
32694;DHT22;19084;44.716;10.218;2022-12-18T03:33:09;5.80;99.90
32694;DHT22;19084;44.716;10.218;2022-12-18T03:35:48;5.80;99.90
32694;DHT22;19084;44.716;10.218;2022-12-18T03:38:22;5.80;99.90
32694;DHT22;19084;44.716;10.218;2022-12-18T03:40:59;5.70;99.90
32694;DHT22;19084;44.716;10.218;2022-12-18T03:46:31;5.70;99.90
32694;DHT22;19084;44.716;10.218;2022-12-18T03:49:08;5.70;99.90
32694;DHT22;19084;44.716;10.218;2022-12-18T03:54:17;5.70;99.90
32694;DHT22;19084;44.716;10.218;2022-12-18T03:57:04;5.70;99.90
32694;DHT22;19084;44.716;10.218;2022-12-18T03:59:39;5.70;99.90
32694;DHT22;19084;44.716;10.218;2022-12-18T04:02:13;5.70;99.90
32694;DHT22;19084;44.716;10.218;2022-12-18T04:04:47;5.60;99.90
32694;DHT22;19084;44.716;10.218;2022-12-18T04:07:23;5.60;99.90
32694;DHT22;19084;44.716;10.218;2022-12-18T04:09:56;5.60;99.90
32694;DHT22;19084;44.716;10.218;2022-12-18T04:12:31;5.60;99.90
32694;DHT22;19084;44.716;10.218;2022-12-18T04:15:04;5.60;99.90
32694;DHT22;19084;44.716;10.218;2022-12-18T04:17:38;5.60;99.90
32694;DHT22;19084;44.716;10.218;2022-12-18T04:20:12;5.60;99.90
32694;DHT22;19084;44.716;10.218;2022-12-18T04:22:47;5.60;99.90
32694;DHT22;19084;44.716;10.218;2022-12-18T04:25:22;5.60;99.90
32694;DHT22;19084;44.716;10.218;2022-12-18T04:28:08;5.60;99.90
32694;DHT22;19084;44.716;10.218;2022-12-18T04:30:43;5.60;99.90
32694;DHT22;19084;44.716;10.218;2022-12-18T04:33:16;5.60;99.90
32694;DHT22;19084;44.716;10.218;2022-12-18T04:35:50;5.60;99.90
32694;DHT22;19084;44.716;10.218;2022-12-18T04:38:22;5.60;99.90
32694;DHT22;19084;44.716;10.218;2022-12-18T04:41:03;5.60;99.90
32694;DHT22;19084;44.716;10.218;2022-12-18T04:43:36;5.60;99.90
32694;DHT22;19084;44.716;10.218;2022-12-18T04:46:09;5.60;99.90
32694;DHT22;19084;44.716;10.218;2022-12-18T04:48:42;5.60;99.90
32694;DHT22;19084;44.716;10.218;2022-12-18T04:51:14;5.60;99.90
32694;DHT22;19084;44.716;10.218;2022-12-18T04:53:46;5.60;99.90
32694;DHT22;19084;44.716;10.218;2022-12-18T04:56:19;5.60;99.90
32694;DHT22;19084;44.716;10.218;2022-12-18T04:58:51;5.60;99.90
32694;DHT22;19084;44.716;10.218;2022-12-18T05:01:24;5.60;99.90
32694;DHT22;19084;44.716;10.218;2022-12-18T05:04:05;5.60;99.90
32694;DHT22;19084;44.716;10.218;2022-12-18T05:06:38;5.60;99.90
32694;DHT22;19084;44.716;10.218;2022-12-18T05:09:10;5.70;99.90
32694;DHT22;19084;44.716;10.218;2022-12-18T05:11:43;5.70;99.90
32694;DHT22;19084;44.716;10.218;2022-12-18T05:14:17;5.70;99.90
32694;DHT22;19084;44.716;10.218;2022-12-18T05:16:50;5.70;99.90
32694;DHT22;19084;44.716;10.218;2022-12-18T05:19:22;5.70;99.90
32694;DHT22;19084;44.716;10.218;2022-12-18T05:21:54;5.70;99.90
32694;DHT22;19084;44.716;10.218;2022-12-18T05:24:27;5.70;99.90
32694;DHT22;19084;44.716;10.218;2022-12-18T05:27:00;5.70;99.90
32694;DHT22;19084;44.716;10.218;2022-12-18T05:29:32;5.80;99.90
32694;DHT22;19084;44.716;10.218;2022-12-18T05:32:05;5.80;99.90
32694;DHT22;19084;44.716;10.218;2022-12-18T05:34:37;5.80;99.90
32694;DHT22;19084;44.716;10.218;2022-12-18T05:37:10;5.90;99.90
32694;DHT22;19084;44.716;10.218;2022-12-18T05:39:43;5.90;99.90
32694;DHT22;19084;44.716;10.218;2022-12-18T05:42:15;5.90;99.90
32694;DHT22;19084;44.716;10.218;2022-12-18T05:44:47;5.90;99.90
32694;DHT22;19084;44.716;10.218;2022-12-18T05:47:20;5.90;99.90
32694;DHT22;19084;44.716;10.218;2022-12-18T05:49:53;5.80;99.90
32694;DHT22;19084;44.716;10.218;2022-12-18T05:52:25;5.80;99.90
32694;DHT22;19084;44.716;10.218;2022-12-18T05:54:57;5.90;99.90
32694;DHT22;19084;44.716;10.218;2022-12-18T05:57:31;5.90;99.90
32694;DHT22;19084;44.716;10.218;2022-12-18T06:00:04;5.90;99.90
32694;DHT22;19084;44.716;10.218;2022-12-18T06:02:46;5.90;99.90
32694;DHT22;19084;44.716;10.218;2022-12-18T06:05:19;5.90;99.90
32694;DHT22;19084;44.716;10.218;2022-12-18T06:07:52;5.90;99.90
32694;DHT22;19084;44.716;10.218;2022-12-18T06:10:24;5.90;99.90
32694;DHT22;19084;44.716;10.218;2022-12-18T06:12:56;5.90;99.90
32694;DHT22;19084;44.716;10.218;2022-12-18T06:15:29;5.90;99.90
32694;DHT22;19084;44.716;10.218;2022-12-18T06:18:02;5.80;99.90
32694;DHT22;19084;44.716;10.218;2022-12-18T06:20:34;5.80;99.90
32694;DHT22;19084;44.716;10.218;2022-12-18T06:23:08;5.80;99.90
32694;DHT22;19084;44.716;10.218;2022-12-18T06:25:41;5.80;99.90
32694;DHT22;19084;44.716;10.218;2022-12-18T06:28:14;5.80;99.90
32694;DHT22;19084;44.716;10.218;2022-12-18T06:30:47;5.80;99.90
32694;DHT22;19084;44.716;10.218;2022-12-18T06:33:20;5.70;99.90
32694;DHT22;19084;44.716;10.218;2022-12-18T06:35:52;5.70;99.90
32694;DHT22;19084;44.716;10.218;2022-12-18T06:38:33;5.70;99.90
32694;DHT22;19084;44.716;10.218;2022-12-18T06:41:07;5.60;99.90
32694;DHT22;19084;44.716;10.218;2022-12-18T06:43:40;5.60;99.90
32694;DHT22;19084;44.716;10.218;2022-12-18T06:46:14;5.60;99.90
32694;DHT22;19084;44.716;10.218;2022-12-18T06:48:47;5.60;99.90
32694;DHT22;19084;44.716;10.218;2022-12-18T06:51:21;5.60;99.90
32694;DHT22;19084;44.716;10.218;2022-12-18T06:53:54;5.60;99.90
32694;DHT22;19084;44.716;10.218;2022-12-18T06:56:27;5.60;99.90
32694;DHT22;19084;44.716;10.218;2022-12-18T06:59:00;5.60;99.90
32694;DHT22;19084;44.716;10.218;2022-12-18T07:01:32;5.50;99.90
32694;DHT22;19084;44.716;10.218;2022-12-18T07:04:05;5.50;99.90
32694;DHT22;19084;44.716;10.218;2022-12-18T07:06:38;5.50;99.90
32694;DHT22;19084;44.716;10.218;2022-12-18T07:09:10;5.50;99.90
32694;DHT22;19084;44.716;10.218;2022-12-18T07:11:43;5.50;99.90
32694;DHT22;19084;44.716;10.218;2022-12-18T07:14:15;5.50;99.90
32694;DHT22;19084;44.716;10.218;2022-12-18T07:16:48;5.50;99.90
32694;DHT22;19084;44.716;10.218;2022-12-18T07:19:20;5.50;99.90
32694;DHT22;19084;44.716;10.218;2022-12-18T07:21:53;5.50;99.90
32694;DHT22;19084;44.716;10.218;2022-12-18T07:24:25;5.50;99.90
32694;DHT22;19084;44.716;10.218;2022-12-18T07:26:58;5.50;99.90
32694;DHT22;19084;44.716;10.218;2022-12-18T07:29:30;5.50;99.90
32694;DHT22;19084;44.716;10.218;2022-12-18T07:32:03;5.50;99.90
32694;DHT22;19084;44.716;10.218;2022-12-18T07:34:35;5.50;99.90
32694;DHT22;19084;44.716;10.218;2022-12-18T07:37:08;5.50;99.90
32694;DHT22;19084;44.716;10.218;2022-12-18T07:39:40;5.50;99.90
32694;DHT22;19084;44.716;10.218;2022-12-18T07:42:13;5.40;99.90
32694;DHT22;19084;44.716;10.218;2022-12-18T07:45:01;5.40;99.90
32694;DHT22;19084;44.716;10.218;2022-12-18T07:47:35;5.40;99.90
32694;DHT22;19084;44.716;10.218;2022-12-18T07:50:09;5.40;99.90
32694;DHT22;19084;44.716;10.218;2022-12-18T07:52:41;5.50;99.90
32694;DHT22;19084;44.716;10.218;2022-12-18T07:55:13;5.50;99.90
32694;DHT22;19084;44.716;10.218;2022-12-18T07:57:46;5.60;99.90
32694;DHT22;19084;44.716;10.218;2022-12-18T08:00:24;5.60;99.90
32694;DHT22;19084;44.716;10.218;2022-12-18T08:02:57;5.60;99.90
32694;DHT22;19084;44.716;10.218;2022-12-18T08:05:30;5.60;99.90
32694;DHT22;19084;44.716;10.218;2022-12-18T08:08:02;5.60;99.90
32694;DHT22;19084;44.716;10.218;2022-12-18T08:10:35;6.10;99.90
32694;DHT22;19084;44.716;10.218;2022-12-18T08:13:08;5.70;99.90
32694;DHT22;19084;44.716;10.218;2022-12-18T08:15:40;5.70;99.90
32694;DHT22;19084;44.716;10.218;2022-12-18T08:18:12;5.70;99.90
32694;DHT22;19084;44.716;10.218;2022-12-18T08:20:46;5.70;99.90
32694;DHT22;19084;44.716;10.218;2022-12-18T08:23:18;5.60;99.90
32694;DHT22;19084;44.716;10.218;2022-12-18T08:25:50;5.60;99.90
32694;DHT22;19084;44.716;10.218;2022-12-18T08:28:23;5.60;99.90
32694;DHT22;19084;44.716;10.218;2022-12-18T08:30:55;5.60;99.90
32694;DHT22;19084;44.716;10.218;2022-12-18T08:33:28;5.60;99.90
32694;DHT22;19084;44.716;10.218;2022-12-18T08:36:01;5.60;99.90
32694;DHT22;19084;44.716;10.218;2022-12-18T08:38:33;5.60;99.90
32694;DHT22;19084;44.716;10.218;2022-12-18T08:41:08;5.60;99.90
32694;DHT22;19084;44.716;10.218;2022-12-18T08:43:42;5.60;99.90
32694;DHT22;19084;44.716;10.218;2022-12-18T08:46:32;5.60;99.90
32694;DHT22;19084;44.716;10.218;2022-12-18T08:49:05;5.50;99.90
32694;DHT22;19084;44.716;10.218;2022-12-18T08:51:38;5.40;99.90
32694;DHT22;19084;44.716;10.218;2022-12-18T08:54:11;5.40;99.90
32694;DHT22;19084;44.716;10.218;2022-12-18T08:56:46;5.40;99.90
32694;DHT22;19084;44.716;10.218;2022-12-18T08:59:18;5.40;99.90
32694;DHT22;19084;44.716;10.218;2022-12-18T09:01:53;5.40;99.90
32694;DHT22;19084;44.716;10.218;2022-12-18T09:04:25;5.40;99.90
32694;DHT22;19084;44.716;10.218;2022-12-18T09:06:58;5.50;99.90
32694;DHT22;19084;44.716;10.218;2022-12-18T09:09:30;5.50;99.90
32694;DHT22;19084;44.716;10.218;2022-12-18T09:12:03;5.60;99.90
32694;DHT22;19084;44.716;10.218;2022-12-18T09:14:38;5.60;99.90
32694;DHT22;19084;44.716;10.218;2022-12-18T09:17:11;5.60;99.90
32694;DHT22;19084;44.716;10.218;2022-12-18T09:19:43;5.60;99.90
32694;DHT22;19084;44.716;10.218;2022-12-18T09:22:16;5.70;99.90
32694;DHT22;19084;44.716;10.218;2022-12-18T09:24:49;5.70;99.90
32694;DHT22;19084;44.716;10.218;2022-12-18T09:27:21;5.70;99.90
32694;DHT22;19084;44.716;10.218;2022-12-18T09:29:54;5.70;99.90
32694;DHT22;19084;44.716;10.218;2022-12-18T09:32:26;5.70;99.90
32694;DHT22;19084;44.716;10.218;2022-12-18T09:34:58;5.70;99.90
32694;DHT22;19084;44.716;10.218;2022-12-18T09:37:31;5.70;99.90
32694;DHT22;19084;44.716;10.218;2022-12-18T09:40:04;5.70;99.90
32694;DHT22;19084;44.716;10.218;2022-12-18T09:42:37;5.70;99.90
32694;DHT22;19084;44.716;10.218;2022-12-18T09:45:11;5.80;99.90
32694;DHT22;19084;44.716;10.218;2022-12-18T09:47:45;5.70;99.90
32694;DHT22;19084;44.716;10.218;2022-12-18T09:50:22;5.70;99.90
32694;DHT22;19084;44.716;10.218;2022-12-18T09:52:56;5.70;99.90
32694;DHT22;19084;44.716;10.218;2022-12-18T09:55:32;5.70;99.90
32694;DHT22;19084;44.716;10.218;2022-12-18T10:00:42;5.70;99.90
32694;DHT22;19084;44.716;10.218;2022-12-18T10:03:16;5.70;99.90
32694;DHT22;19084;44.716;10.218;2022-12-18T10:08:25;5.80;99.90
32694;DHT22;19084;44.716;10.218;2022-12-18T10:13:49;5.80;99.90
32694;DHT22;19084;44.716;10.218;2022-12-18T10:16:27;5.80;99.90
32694;DHT22;19084;44.716;10.218;2022-12-18T10:19:15;5.80;99.90
32694;DHT22;19084;44.716;10.218;2022-12-18T10:21:55;5.80;99.90
32694;DHT22;19084;44.716;10.218;2022-12-18T10:27:11;5.90;99.90
32694;DHT22;19084;44.716;10.218;2022-12-18T10:29:45;6.00;99.90
32694;DHT22;19084;44.716;10.218;2022-12-18T10:32:19;6.00;99.90
32694;DHT22;19084;44.716;10.218;2022-12-18T10:34:53;5.90;99.90
32694;DHT22;19084;44.716;10.218;2022-12-18T10:37:32;5.80;99.90
32694;DHT22;19084;44.716;10.218;2022-12-18T10:40:07;5.90;99.90
32694;DHT22;19084;44.716;10.218;2022-12-18T10:42:40;5.90;99.90
32694;DHT22;19084;44.716;10.218;2022-12-18T10:45:15;5.90;99.90
32694;DHT22;19084;44.716;10.218;2022-12-18T10:47:50;5.90;99.90
32694;DHT22;19084;44.716;10.218;2022-12-18T10:53:03;6.00;99.90
32694;DHT22;19084;44.716;10.218;2022-12-18T10:55:38;6.00;99.90
32694;DHT22;19084;44.716;10.218;2022-12-18T11:01:09;6.00;99.90
32694;DHT22;19084;44.716;10.218;2022-12-18T11:03:45;6.00;99.90
32694;DHT22;19084;44.716;10.218;2022-12-18T11:06:19;6.00;99.90
32694;DHT22;19084;44.716;10.218;2022-12-18T11:09:02;6.00;99.90
32694;DHT22;19084;44.716;10.218;2022-12-18T11:11:49;6.00;99.90
32694;DHT22;19084;44.716;10.218;2022-12-18T11:14:26;6.00;99.90
32694;DHT22;19084;44.716;10.218;2022-12-18T11:16:59;6.00;99.90
32694;DHT22;19084;44.716;10.218;2022-12-18T11:19:54;5.90;99.90
32694;DHT22;19084;44.716;10.218;2022-12-18T11:22:28;6.00;99.90
32694;DHT22;19084;44.716;10.218;2022-12-18T11:27:56;5.90;99.90
32694;DHT22;19084;44.716;10.218;2022-12-18T11:30:33;6.00;99.90
32694;DHT22;19084;44.716;10.218;2022-12-18T11:33:09;6.10;99.90
32694;DHT22;19084;44.716;10.218;2022-12-18T11:38:34;6.10;99.90
32694;DHT22;19084;44.716;10.218;2022-12-18T11:44:25;6.20;99.90
32694;DHT22;19084;44.716;10.218;2022-12-18T11:47:03;6.20;99.90
32694;DHT22;19084;44.716;10.218;2022-12-18T11:49:41;6.20;99.90
32694;DHT22;19084;44.716;10.218;2022-12-18T11:54:50;6.20;99.90
32694;DHT22;19084;44.716;10.218;2022-12-18T12:10:52;6.10;99.90
32694;DHT22;19084;44.716;10.218;2022-12-18T12:21:19;6.30;99.90
32694;DHT22;19084;44.716;10.218;2022-12-18T12:26:45;6.40;99.90
32694;DHT22;19084;44.716;10.218;2022-12-18T12:32:00;6.50;99.90
32694;DHT22;19084;44.716;10.218;2022-12-18T12:39:59;6.50;99.90
32694;DHT22;19084;44.716;10.218;2022-12-18T12:42:54;6.60;99.90
32694;DHT22;19084;44.716;10.218;2022-12-18T12:48:34;6.90;99.90
32694;DHT22;19084;44.716;10.218;2022-12-18T12:51:12;6.90;99.90
32694;DHT22;19084;44.716;10.218;2022-12-18T12:53:46;6.80;99.90
32694;DHT22;19084;44.716;10.218;2022-12-18T12:56:20;6.70;99.90
32694;DHT22;19084;44.716;10.218;2022-12-18T13:01:52;6.70;99.90
32694;DHT22;19084;44.716;10.218;2022-12-18T13:04:28;6.80;99.90
32694;DHT22;19084;44.716;10.218;2022-12-18T13:07:05;6.80;99.90
32694;DHT22;19084;44.716;10.218;2022-12-18T13:12:27;6.80;99.90
32694;DHT22;19084;44.716;10.218;2022-12-18T13:20:50;6.90;99.90
32694;DHT22;19084;44.716;10.218;2022-12-18T13:23:31;7.00;99.90
32694;DHT22;19084;44.716;10.218;2022-12-18T13:39:49;7.20;99.90
32694;DHT22;19084;44.716;10.218;2022-12-18T13:48:05;7.10;99.90
32694;DHT22;19084;44.716;10.218;2022-12-18T13:56:07;7.00;99.90
32694;DHT22;19084;44.716;10.218;2022-12-18T13:58:39;7.00;99.90
32694;DHT22;19084;44.716;10.218;2022-12-18T14:01:21;7.00;99.90
32694;DHT22;19084;44.716;10.218;2022-12-18T14:06:42;6.90;99.90
32694;DHT22;19084;44.716;10.218;2022-12-18T14:09:18;6.80;99.90
32694;DHT22;19084;44.716;10.218;2022-12-18T14:11:52;6.80;99.90
32694;DHT22;19084;44.716;10.218;2022-12-18T14:14:47;6.80;99.90
32694;DHT22;19084;44.716;10.218;2022-12-18T14:17:24;6.70;99.90
32694;DHT22;19084;44.716;10.218;2022-12-18T14:19:57;6.80;99.90
32694;DHT22;19084;44.716;10.218;2022-12-18T14:22:29;6.80;99.90
32694;DHT22;19084;44.716;10.218;2022-12-18T14:27:52;6.70;99.90
32694;DHT22;19084;44.716;10.218;2022-12-18T14:30:26;6.80;99.90
32694;DHT22;19084;44.716;10.218;2022-12-18T14:33:03;6.80;99.90
32694;DHT22;19084;44.716;10.218;2022-12-18T14:35:37;6.70;99.90
32694;DHT22;19084;44.716;10.218;2022-12-18T14:40:43;6.70;99.90
32694;DHT22;19084;44.716;10.218;2022-12-18T14:43:16;6.80;99.90
32694;DHT22;19084;44.716;10.218;2022-12-18T14:45:49;6.80;99.90
32694;DHT22;19084;44.716;10.218;2022-12-18T14:51:20;6.70;99.90
32694;DHT22;19084;44.716;10.218;2022-12-18T14:53:55;6.70;99.90
32694;DHT22;19084;44.716;10.218;2022-12-18T14:56:30;6.70;99.90
32694;DHT22;19084;44.716;10.218;2022-12-18T14:59:04;6.70;99.90
32694;DHT22;19084;44.716;10.218;2022-12-18T15:04:32;6.60;99.90
32694;DHT22;19084;44.716;10.218;2022-12-18T15:07:09;6.60;99.90
32694;DHT22;19084;44.716;10.218;2022-12-18T15:12:36;6.50;99.90
32694;DHT22;19084;44.716;10.218;2022-12-18T15:17:57;6.40;99.90
32694;DHT22;19084;44.716;10.218;2022-12-18T15:20:30;6.40;99.90
32694;DHT22;19084;44.716;10.218;2022-12-18T15:23:03;6.30;99.90
32694;DHT22;19084;44.716;10.218;2022-12-18T15:25:36;6.30;99.90
32694;DHT22;19084;44.716;10.218;2022-12-18T15:28:15;6.30;99.90
32694;DHT22;19084;44.716;10.218;2022-12-18T15:30:58;6.20;99.90
32694;DHT22;19084;44.716;10.218;2022-12-18T15:33:32;6.20;99.90
32694;DHT22;19084;44.716;10.218;2022-12-18T15:36:10;6.20;99.90
32694;DHT22;19084;44.716;10.218;2022-12-18T15:38:47;6.20;99.90
32694;DHT22;19084;44.716;10.218;2022-12-18T15:41:20;6.10;99.90
32694;DHT22;19084;44.716;10.218;2022-12-18T15:43:55;6.10;99.90
32694;DHT22;19084;44.716;10.218;2022-12-18T15:46:28;6.00;99.90
32694;DHT22;19084;44.716;10.218;2022-12-18T15:49:02;6.00;99.90
32694;DHT22;19084;44.716;10.218;2022-12-18T15:51:35;5.90;99.90
32694;DHT22;19084;44.716;10.218;2022-12-18T15:54:10;5.90;99.90
32694;DHT22;19084;44.716;10.218;2022-12-18T15:56:44;5.90;99.90
32694;DHT22;19084;44.716;10.218;2022-12-18T15:59:32;5.80;99.90
32694;DHT22;19084;44.716;10.218;2022-12-18T16:02:07;5.80;99.90
32694;DHT22;19084;44.716;10.218;2022-12-18T16:04:47;5.70;99.90
32694;DHT22;19084;44.716;10.218;2022-12-18T16:07:20;5.70;99.90
32694;DHT22;19084;44.716;10.218;2022-12-18T16:09:56;5.60;99.90
32694;DHT22;19084;44.716;10.218;2022-12-18T16:12:33;5.60;99.90
32694;DHT22;19084;44.716;10.218;2022-12-18T16:15:07;5.50;99.90
32694;DHT22;19084;44.716;10.218;2022-12-18T16:17:40;5.50;99.90
32694;DHT22;19084;44.716;10.218;2022-12-18T16:20:14;5.50;99.90
32694;DHT22;19084;44.716;10.218;2022-12-18T16:22:47;5.40;99.90
32694;DHT22;19084;44.716;10.218;2022-12-18T16:25:21;5.30;99.90
32694;DHT22;19084;44.716;10.218;2022-12-18T16:27:54;5.20;99.90
32694;DHT22;19084;44.716;10.218;2022-12-18T16:30:30;5.20;99.90
32694;DHT22;19084;44.716;10.218;2022-12-18T16:33:10;5.20;99.90
32694;DHT22;19084;44.716;10.218;2022-12-18T16:35:43;5.20;99.90
32694;DHT22;19084;44.716;10.218;2022-12-18T16:38:22;5.10;99.90
32694;DHT22;19084;44.716;10.218;2022-12-18T16:40:55;5.10;99.90
32694;DHT22;19084;44.716;10.218;2022-12-18T16:43:43;5.10;99.90
32694;DHT22;19084;44.716;10.218;2022-12-18T16:46:22;5.00;99.90
32694;DHT22;19084;44.716;10.218;2022-12-18T16:48:56;5.00;99.90
32694;DHT22;19084;44.716;10.218;2022-12-18T16:51:29;5.00;99.90
32694;DHT22;19084;44.716;10.218;2022-12-18T16:54:05;5.00;99.90
32694;DHT22;19084;44.716;10.218;2022-12-18T16:56:46;5.00;99.90
32694;DHT22;19084;44.716;10.218;2022-12-18T16:59:22;5.00;99.90
32694;DHT22;19084;44.716;10.218;2022-12-18T17:01:54;5.10;99.90
32694;DHT22;19084;44.716;10.218;2022-12-18T17:04:28;5.10;99.90
32694;DHT22;19084;44.716;10.218;2022-12-18T17:07:01;5.10;99.90
32694;DHT22;19084;44.716;10.218;2022-12-18T17:09:33;5.10;99.90
32694;DHT22;19084;44.716;10.218;2022-12-18T17:12:06;5.10;99.90
32694;DHT22;19084;44.716;10.218;2022-12-18T17:14:38;5.20;99.90
32694;DHT22;19084;44.716;10.218;2022-12-18T17:17:11;5.20;99.90
32694;DHT22;19084;44.716;10.218;2022-12-18T17:19:53;5.20;99.90
32694;DHT22;19084;44.716;10.218;2022-12-18T17:22:26;5.20;99.90
32694;DHT22;19084;44.716;10.218;2022-12-18T17:24:59;5.30;99.90
32694;DHT22;19084;44.716;10.218;2022-12-18T17:27:32;5.30;99.90
32694;DHT22;19084;44.716;10.218;2022-12-18T17:30:04;5.30;99.90
32694;DHT22;19084;44.716;10.218;2022-12-18T17:32:37;5.30;99.90
32694;DHT22;19084;44.716;10.218;2022-12-18T17:35:10;5.30;99.90
32694;DHT22;19084;44.716;10.218;2022-12-18T17:37:43;5.30;99.90
32694;DHT22;19084;44.716;10.218;2022-12-18T17:40:15;5.30;99.90
32694;DHT22;19084;44.716;10.218;2022-12-18T17:42:51;5.30;99.90
32694;DHT22;19084;44.716;10.218;2022-12-18T17:45:23;5.30;99.90
32694;DHT22;19084;44.716;10.218;2022-12-18T17:47:58;5.30;99.90
32694;DHT22;19084;44.716;10.218;2022-12-18T17:50:32;5.30;99.90
32694;DHT22;19084;44.716;10.218;2022-12-18T17:53:04;5.30;99.90
32694;DHT22;19084;44.716;10.218;2022-12-18T17:55:37;5.30;99.90
32694;DHT22;19084;44.716;10.218;2022-12-18T17:58:09;5.30;99.90
32694;DHT22;19084;44.716;10.218;2022-12-18T18:00:42;5.30;99.90
32694;DHT22;19084;44.716;10.218;2022-12-18T18:03:14;5.40;99.90
32694;DHT22;19084;44.716;10.218;2022-12-18T18:05:47;5.40;99.90
32694;DHT22;19084;44.716;10.218;2022-12-18T18:08:20;5.30;99.90
32694;DHT22;19084;44.716;10.218;2022-12-18T18:10:53;5.40;99.90
32694;DHT22;19084;44.716;10.218;2022-12-18T18:13:26;5.40;99.90
32694;DHT22;19084;44.716;10.218;2022-12-18T18:16:18;5.30;99.90
32694;DHT22;19084;44.716;10.218;2022-12-18T18:18:50;5.30;99.90
32694;DHT22;19084;44.716;10.218;2022-12-18T18:21:23;5.30;99.90
32694;DHT22;19084;44.716;10.218;2022-12-18T18:24:03;5.30;99.90
32694;DHT22;19084;44.716;10.218;2022-12-18T18:26:36;5.30;99.90
32694;DHT22;19084;44.716;10.218;2022-12-18T18:29:12;5.30;99.90
32694;DHT22;19084;44.716;10.218;2022-12-18T18:31:45;5.30;99.90
32694;DHT22;19084;44.716;10.218;2022-12-18T18:34:19;5.30;99.90
32694;DHT22;19084;44.716;10.218;2022-12-18T18:36:52;5.30;99.90
32694;DHT22;19084;44.716;10.218;2022-12-18T18:39:25;5.30;99.90
32694;DHT22;19084;44.716;10.218;2022-12-18T18:41:57;5.30;99.90
32694;DHT22;19084;44.716;10.218;2022-12-18T18:44:30;5.30;99.90